Terminal Aerodrome Forecast
Issued by NWS

Home | Current Version | Previous Version | Text Only | Print | Product List | Glossary On
Versions: 1 2 3 4 5 6 7 8 9 10 11 12 13 14 15 16 17 18 19 20 21
489
FTUS43 KOAX 260920 AAA
TAFSNY
TAF AMD
KSNY 260920Z 2609/2706 22005KT P6SM SCT015
      TEMPO 2610/2614 4SM BR BKN010
     FM261500 24006KT P6SM SCT050
     FM262000 14005KT P6SM SKC=

USA.gov is the U.S. government's official web portal to all federal, state and local government web resources and services.